createdAt,value
2023-02-06T00:02:07.936Z,98989.78
2023-02-06T00:04:34.754Z,98989.78
2023-02-06T00:07:01.560Z,98989.03
2023-02-06T00:09:28.216Z,98989.28
2023-02-06T00:11:54.982Z,98983.84
2023-02-06T00:14:21.650Z,98988.53
2023-02-06T00:16:48.430Z,98974.72
2023-02-06T00:19:15.128Z,98973.50
2023-02-06T00:21:42.937Z,98981.88
2023-02-06T00:24:09.768Z,98986.34
2023-02-06T00:26:36.704Z,98986.09
2023-02-06T00:29:03.644Z,98994.22
2023-02-06T00:31:30.472Z,99000.41
2023-02-06T00:33:57.259Z,98987.59
2023-02-06T00:36:25.636Z,98989.78
2023-02-06T00:38:52.487Z,98996.47
2023-02-06T00:41:19.850Z,98990.78
2023-02-06T00:43:46.516Z,98990.03
2023-02-06T00:46:13.320Z,98990.03
2023-02-06T00:48:40.347Z,98986.38
2023-02-06T00:51:07.088Z,98985.38
2023-02-06T00:53:36.344Z,98984.41
2023-02-06T00:56:03.354Z,98978.25
2023-02-06T00:58:30.078Z,98986.38
2023-02-06T01:00:56.930Z,98977.75
2023-02-06T01:03:23.669Z,98978.25
2023-02-06T01:05:50.479Z,98978.50
2023-02-06T01:08:17.165Z,98985.66
2023-02-06T01:10:44.637Z,98984.19
2023-02-06T01:13:11.748Z,98982.94
2023-02-06T01:15:41.009Z,98987.16
2023-02-06T01:18:07.749Z,98989.88
2023-02-06T01:20:34.505Z,98985.91
2023-02-06T01:23:03.261Z,98978.50
2023-02-06T01:25:31.573Z,98976.31
2023-02-06T01:27:58.490Z,98968.66
2023-02-06T01:30:25.304Z,98971.63
2023-02-06T01:32:52.004Z,98975.59
2023-02-06T01:35:18.935Z,98968.66
2023-02-06T01:37:45.594Z,98974.81
2023-02-06T01:40:14.975Z,98963.97
2023-02-06T01:42:41.833Z,98967.44
2023-02-06T01:45:26.925Z,98966.69
2023-02-06T01:48:03.961Z,98965.94
2023-02-06T01:50:33.518Z,98963.00
2023-02-06T01:53:00.985Z,98973.38
2023-02-06T01:55:29.184Z,98971.16
2023-02-06T01:57:58.409Z,98972.63
2023-02-06T02:00:25.488Z,98964.50
2023-02-06T02:02:52.246Z,98965.97
2023-02-06T02:05:19.884Z,98958.09
2023-02-06T02:07:51.713Z,98952.16
2023-02-06T02:10:18.501Z,98955.59
2023-02-06T02:12:45.363Z,98967.94
2023-02-06T02:15:12.205Z,98959.31
2023-02-06T02:17:48.130Z,98959.03
2023-02-06T02:20:18.176Z,98959.78
2023-02-06T02:22:53.922Z,98965.94
2023-02-06T02:25:51.580Z,98963.97
2023-02-06T02:29:05.953Z,98960.03
2023-02-06T02:31:53.767Z,98962.75
2023-02-06T02:34:38.824Z,98961.75
2023-02-06T02:37:42.103Z,98971.88
2023-02-06T02:40:19.408Z,98970.41
2023-02-06T02:42:52.896Z,98967.69
2023-02-06T02:45:21.627Z,98962.28
2023-02-06T02:47:58.410Z,98963.75
2023-02-06T02:50:26.041Z,98957.56
2023-02-06T02:52:52.852Z,98965.94
2023-02-06T02:55:22.819Z,98963.75
2023-02-06T02:57:58.469Z,98958.31
2023-02-06T03:00:26.280Z,98969.91
2023-02-06T03:02:54.600Z,98961.75
2023-02-06T03:05:24.445Z,98952.16
2023-02-06T03:07:58.860Z,98956.84
2023-02-06T03:10:44.088Z,98961.75
2023-02-06T03:13:22.401Z,98953.38
2023-02-06T03:15:57.367Z,98959.56
2023-02-06T03:18:59.493Z,98961.53
2023-02-06T03:21:28.389Z,98951.91
2023-02-06T03:23:58.720Z,98959.28
2023-02-06T03:26:27.472Z,98956.59
2023-02-06T03:28:56.944Z,98964.97
2023-02-06T03:31:29.307Z,98954.63
2023-02-06T03:34:01.082Z,98955.84
2023-02-06T03:36:28.272Z,98951.66
2023-02-06T03:38:55.104Z,98951.66
2023-02-06T03:41:25.734Z,98955.84
2023-02-06T03:43:53.275Z,98955.13
2023-02-06T03:46:20.176Z,98949.69
2023-02-06T03:48:49.769Z,98942.06
2023-02-06T03:51:21.800Z,98946.00
2023-02-06T03:53:50.099Z,98950.69
2023-02-06T03:56:24.225Z,98958.34
2023-02-06T03:58:50.997Z,98961.53
2023-02-06T04:01:18.612Z,98968.69
2023-02-06T04:03:45.916Z,98972.88
2023-02-06T04:06:12.589Z,98974.13
2023-02-06T04:08:39.420Z,98975.34
2023-02-06T04:11:06.217Z,98974.63
2023-02-06T04:13:33.056Z,98973.88
2023-02-06T04:16:01.238Z,98964.50
2023-02-06T04:18:29.799Z,98967.44
2023-02-06T04:20:56.439Z,98974.13
2023-02-06T04:23:23.156Z,98969.44
2023-02-06T04:25:49.830Z,98971.16
2023-02-06T04:28:16.646Z,98964.50
2023-02-06T04:30:43.390Z,98968.69
2023-02-06T04:33:10.227Z,98964.50
2023-02-06T04:35:37.172Z,98974.13
2023-02-06T04:38:04.236Z,98980.78
2023-02-06T04:40:31.030Z,98979.53
2023-02-06T04:42:57.789Z,98976.09
2023-02-06T04:45:24.449Z,98978.06
2023-02-06T04:47:51.224Z,98969.94
2023-02-06T04:50:18.279Z,98970.66
2023-02-06T04:52:45.061Z,98967.94
2023-02-06T04:55:11.821Z,98966.47
2023-02-06T04:57:41.148Z,98963.25
2023-02-06T05:00:09.377Z,98963.25
2023-02-06T05:02:39.722Z,98951.69
2023-02-06T05:05:08.156Z,98958.56
2023-02-06T05:07:35.352Z,98963.78
2023-02-06T05:10:02.748Z,98955.63
2023-02-06T05:12:29.505Z,98963.53
2023-02-06T05:14:56.348Z,98966.25
2023-02-06T05:17:23.091Z,98969.69
2023-02-06T05:19:49.852Z,98973.63
2023-02-06T05:22:16.529Z,98984.47
2023-02-06T05:24:43.336Z,98975.88
2023-02-06T05:27:10.025Z,98971.94
2023-02-06T05:29:36.867Z,98977.38
2023-02-06T05:32:12.773Z,98982.78
2023-02-06T05:34:40.931Z,98981.06
2023-02-06T05:37:07.601Z,98984.50
2023-02-06T05:39:34.313Z,98985.75
2023-02-06T05:42:00.965Z,98979.34
2023-02-06T05:44:27.914Z,98970.22
2023-02-06T05:46:54.792Z,98975.66
2023-02-06T05:49:21.566Z,98975.41
2023-02-06T05:51:48.283Z,98964.31
2023-02-06T05:54:17.068Z,98966.28
2023-02-06T05:56:44.256Z,98971.72
2023-02-06T05:59:11.025Z,98976.38
2023-02-06T06:01:37.906Z,98969.25
2023-02-06T06:04:04.755Z,98977.59
2023-02-06T06:06:34.893Z,98982.03
2023-02-06T06:09:02.029Z,98981.56
2023-02-06T06:11:29.977Z,98982.75
2023-02-06T06:13:56.716Z,98984.94
2023-02-06T06:16:23.464Z,98993.56
2023-02-06T06:18:51.284Z,98983.88
2023-02-06T06:21:17.995Z,98976.19
2023-02-06T06:23:44.725Z,98989.75
2023-02-06T06:26:11.474Z,98996.03
2023-02-06T06:28:38.926Z,98997.91
2023-02-06T06:31:08.099Z,98995.19
2023-02-06T06:33:35.124Z,98982.94
2023-02-06T06:36:01.842Z,98992.19
2023-02-06T06:38:28.745Z,98987.91
2023-02-06T06:40:55.442Z,98979.44
2023-02-06T06:43:22.293Z,98979.38
2023-02-06T06:45:49.215Z,98979.75
2023-02-06T06:48:15.980Z,98976.75
2023-02-06T06:50:42.734Z,98986.81
2023-02-06T06:53:09.539Z,98980.91
2023-02-06T06:55:36.550Z,98980.53
2023-02-06T06:58:03.418Z,98980.94
2023-02-06T07:00:30.202Z,98977.97
2023-02-06T07:02:57.188Z,98985.53
2023-02-06T07:05:23.983Z,98991.38
2023-02-06T07:07:50.770Z,99000.31
2023-02-06T07:10:17.729Z,98988.56
2023-02-06T07:12:44.612Z,98998.13
2023-02-06T07:15:11.436Z,98984.97
2023-02-06T07:17:38.800Z,98975.72
2023-02-06T07:20:06.065Z,98974.56
2023-02-06T07:22:32.949Z,98969.28
2023-02-06T07:24:59.588Z,98961.00
2023-02-06T07:27:26.322Z,98966.19
2023-02-06T07:29:53.052Z,98959.88
2023-02-06T07:32:19.820Z,98952.59
2023-02-06T07:34:46.606Z,98952.19
2023-02-06T07:37:13.420Z,98955.50
2023-02-06T07:39:40.167Z,98955.81
2023-02-06T07:42:06.978Z,98954.84
2023-02-06T07:44:49.032Z,98951.09
2023-02-06T07:47:15.868Z,98949.78
2023-02-06T07:49:42.501Z,98955.25
2023-02-06T07:52:09.286Z,98959.97
2023-02-06T07:54:36.079Z,98958.75
2023-02-06T07:57:02.939Z,98951.22
2023-02-06T07:59:29.756Z,98957.91
2023-02-06T08:01:56.558Z,98966.06
2023-02-06T08:04:23.236Z,98955.28
2023-02-06T08:06:50.116Z,98944.47
2023-02-06T08:09:19.666Z,98955.28
2023-02-06T08:11:49.369Z,98961.66
2023-02-06T08:14:16.152Z,98964.84
2023-02-06T08:16:43.156Z,98964.28
2023-02-06T08:19:12.316Z,98953.31
2023-02-06T08:21:39.019Z,98962.47
2023-02-06T08:24:06.193Z,98964.22
2023-02-06T08:26:33.225Z,98966.03
2023-02-06T08:29:02.082Z,98967.59
2023-02-06T08:31:32.616Z,98980.41
2023-02-06T08:34:00.069Z,98996.50
2023-02-06T08:36:28.004Z,98993.91
2023-02-06T08:38:54.853Z,98983.56
2023-02-06T08:41:29.509Z,98965.94
2023-02-06T08:43:58.415Z,98975.38
2023-02-06T08:46:28.302Z,98980.63
2023-02-06T08:49:00.041Z,98985.84
2023-02-06T08:51:30.244Z,98983.41
2023-02-06T08:53:58.490Z,98987.97
2023-02-06T08:56:25.860Z,98977.69
2023-02-06T08:58:53.667Z,98979.91
2023-02-06T09:01:21.178Z,98987.59
2023-02-06T09:03:48.043Z,98981.78
2023-02-06T09:06:15.929Z,98988.94
2023-02-06T09:08:42.778Z,98981.34
2023-02-06T09:11:12.332Z,98980.84
2023-02-06T09:13:39.430Z,98980.84
2023-02-06T09:16:06.966Z,98972.50
2023-02-06T09:18:34.125Z,98976.69
2023-02-06T09:21:10.144Z,98972.97
2023-02-06T09:23:39.832Z,98970.34
2023-02-06T09:26:06.720Z,98964.00
2023-02-06T09:28:33.908Z,98977.25
2023-02-06T09:31:00.845Z,98972.63
2023-02-06T09:33:27.608Z,98973.66
2023-02-06T09:36:03.542Z,98973.22
2023-02-06T09:38:30.497Z,98975.22
2023-02-06T09:40:57.949Z,98983.31
2023-02-06T09:43:25.024Z,98978.16
2023-02-06T09:46:01.718Z,98977.25
2023-02-06T09:48:31.626Z,98972.81
2023-02-06T09:51:17.028Z,98971.19
2023-02-06T09:53:56.444Z,98974.31
2023-02-06T09:56:29.072Z,98967.25
2023-02-06T09:59:06.449Z,98966.84
2023-02-06T10:01:42.359Z,98965.91
2023-02-06T10:04:34.177Z,98969.09
2023-02-06T10:07:29.587Z,98969.34
2023-02-06T10:10:02.217Z,98967.88
2023-02-06T10:12:31.154Z,98970.84
2023-02-06T10:15:03.427Z,98973.56
2023-02-06T10:17:31.587Z,98976.28
2023-02-06T10:20:07.303Z,98979.06
2023-02-06T10:22:43.039Z,98967.44
2023-02-06T10:25:24.028Z,98966.22
2023-02-06T10:28:00.831Z,98963.53
2023-02-06T10:30:55.600Z,98963.03
2023-02-06T10:33:31.121Z,98965.00
2023-02-06T10:36:05.748Z,98953.16
2023-02-06T10:39:23.685Z,98953.88
2023-02-06T10:42:07.874Z,98953.63
2023-02-06T10:45:18.396Z,98944.78
2023-02-06T10:47:57.550Z,98928.31
2023-02-06T10:50:38.050Z,98931.47
2023-02-06T10:53:15.372Z,98927.50
2023-02-06T10:55:49.687Z,98924.59
2023-02-06T10:58:21.390Z,98915.53
2023-02-06T11:00:49.826Z,98905.66
2023-02-06T11:03:20.337Z,98900.72
2023-02-06T11:05:48.172Z,98895.56
2023-02-06T11:08:22.174Z,98887.44
2023-02-06T11:10:49.321Z,98880.53
2023-02-06T11:13:25.335Z,98884.00
2023-02-06T11:16:19.645Z,98870.88
2023-02-06T11:18:46.809Z,98876.75
2023-02-06T11:21:16.551Z,98881.66
2023-02-06T11:23:43.291Z,98872.13
2023-02-06T11:26:16.032Z,98878.56
2023-02-06T11:28:59.844Z,98881.03
2023-02-06T11:31:50.353Z,98882.75
2023-02-06T11:34:33.098Z,98874.63
2023-02-06T11:37:06.827Z,98873.16
2023-02-06T11:39:36.708Z,98874.56
2023-02-06T11:42:15.322Z,98872.97
2023-02-06T11:44:43.785Z,98875.38
2023-02-06T11:47:32.949Z,98866.88
2023-02-06T11:50:15.130Z,98851.81
2023-02-06T11:52:46.653Z,98844.69
2023-02-06T11:55:27.463Z,98853.56
2023-02-06T11:58:20.407Z,98856.25
2023-02-06T12:00:54.708Z,98855.25
2023-02-06T12:03:38.430Z,98854.22
2023-02-06T12:06:14.369Z,98845.19
2023-02-06T12:08:43.989Z,98844.06
2023-02-06T12:11:17.012Z,98846.19
2023-02-06T12:13:47.974Z,98849.69
2023-02-06T12:16:17.567Z,98842.59
2023-02-06T12:18:45.766Z,98846.28
2023-02-06T12:21:17.486Z,98841.13
2023-02-06T12:23:48.979Z,98845.78
2023-02-06T12:26:22.189Z,98840.66
2023-02-06T12:29:32.913Z,98842.88
2023-02-06T12:32:07.413Z,98835.50
2023-02-06T12:34:51.505Z,98831.56
2023-02-06T12:37:40.231Z,98833.53
2023-02-06T12:40:27.256Z,98819.50
2023-02-06T12:43:02.117Z,98821.44
2023-02-06T12:45:57.210Z,98814.75
2023-02-06T12:48:29.532Z,98807.06
2023-02-06T12:51:14.627Z,98812.19
2023-02-06T12:54:10.368Z,98811.06
2023-02-06T12:56:44.143Z,98812.38
2023-02-06T12:59:17.944Z,98813.94
2023-02-06T13:02:00.127Z,98816.66
2023-02-06T13:04:33.109Z,98812.44
2023-02-06T13:07:06.428Z,98802.41
2023-02-06T13:09:36.464Z,98801.97
2023-02-06T13:12:13.513Z,98797.69
2023-02-06T13:14:55.128Z,98791.44
2023-02-06T13:17:42.725Z,98788.03
2023-02-06T13:20:11.732Z,98787.09
2023-02-06T13:22:45.365Z,98790.28
2023-02-06T13:25:30.403Z,98804.28
2023-02-06T13:28:01.113Z,98798.56
2023-02-06T13:30:30.930Z,98791.44
2023-02-06T13:33:17.903Z,98792.50
2023-02-06T13:35:58.462Z,98795.00
2023-02-06T13:38:34.364Z,98799.97
2023-02-06T13:41:16.186Z,98815.22
2023-02-06T13:43:59.808Z,98816.19
2023-02-06T13:47:02.305Z,98805.03
2023-02-06T13:49:58.232Z,98806.09
2023-02-06T13:52:37.505Z,98808.06
2023-02-06T13:55:35.623Z,98814.00
2023-02-06T13:58:28.042Z,98805.41
2023-02-06T14:00:55.321Z,98816.06
2023-02-06T14:03:26.091Z,98813.34
2023-02-06T14:06:08.345Z,98810.88
2023-02-06T14:08:59.522Z,98803.72
2023-02-06T14:12:12.309Z,98804.94
2023-02-06T14:14:57.918Z,98804.19
2023-02-06T14:17:40.173Z,98807.09
2023-02-06T14:20:15.950Z,98804.91
2023-02-06T14:22:55.238Z,98795.28
2023-02-06T14:25:31.190Z,98800.22
2023-02-06T14:28:11.543Z,98798.47
2023-02-06T14:30:42.821Z,98794.78
2023-02-06T14:33:28.366Z,98791.34
2023-02-06T14:36:01.261Z,98796.50
2023-02-06T14:38:48.420Z,98795.06
2023-02-06T14:41:15.421Z,98802.19
2023-02-06T14:43:43.751Z,98797.25
2023-02-06T14:46:14.742Z,98800.75
2023-02-06T14:48:54.901Z,98810.13
2023-02-06T14:54:38.664Z,98814.28
2023-02-06T14:57:13.662Z,98823.16
2023-02-06T14:59:54.478Z,98812.78
2023-02-06T15:02:28.801Z,98814.50
2023-02-06T15:04:56.097Z,98816.69
2023-02-06T15:07:29.823Z,98820.09
2023-02-06T15:10:04.051Z,98826.22
2023-02-06T15:12:32.221Z,98821.53
2023-02-06T15:15:11.026Z,98824.25
2023-02-06T15:17:38.827Z,98825.97
2023-02-06T15:20:20.869Z,98822.75
2023-02-06T15:22:48.036Z,98820.50
2023-02-06T15:25:40.633Z,98819.50
2023-02-06T15:28:13.074Z,98813.56
2023-02-06T15:30:40.391Z,98806.66
2023-02-06T15:33:10.332Z,98813.50
2023-02-06T15:35:40.686Z,98809.09
2023-02-06T15:38:14.036Z,98812.19
2023-02-06T15:40:53.675Z,98805.78
2023-02-06T15:43:25.146Z,98808.19
2023-02-06T15:45:55.879Z,98801.47
2023-02-06T15:48:28.083Z,98800.19
2023-02-06T15:51:28.664Z,98794.31
2023-02-06T15:54:24.650Z,98797.75
2023-02-06T15:57:03.397Z,98797.06
2023-02-06T15:59:33.491Z,98798.53
2023-02-06T16:02:00.842Z,98798.28
2023-02-06T16:04:39.724Z,98805.63
2023-02-06T16:07:15.653Z,98794.28
2023-02-06T16:09:51.601Z,98787.31
2023-02-06T16:12:18.933Z,98797.66
2023-02-06T16:15:00.023Z,98781.22
2023-02-06T16:17:41.305Z,98794.66
2023-02-06T16:20:33.144Z,98789.72
2023-02-06T16:23:19.643Z,98776.84
2023-02-06T16:25:48.908Z,98782.41
2023-02-06T16:28:23.264Z,98793.38
2023-02-06T16:31:01.970Z,98797.94
2023-02-06T16:33:32.554Z,98796.41
2023-02-06T16:35:59.660Z,98797.84
2023-02-06T16:38:26.560Z,98792.75
2023-02-06T16:40:53.841Z,98798.19
2023-02-06T16:43:20.656Z,98801.06
2023-02-06T16:45:49.211Z,98811.06
2023-02-06T16:48:17.612Z,98801.03
2023-02-06T16:50:45.501Z,98811.28
2023-02-06T16:53:21.998Z,98812.00
2023-02-06T16:55:49.554Z,98818.88
2023-02-06T16:58:21.812Z,98825.28
2023-02-06T17:00:49.233Z,98825.28
2023-02-06T17:03:23.021Z,98824.56
2023-02-06T17:05:52.158Z,98819.41
2023-02-06T17:08:24.196Z,98828.53
2023-02-06T17:10:51.154Z,98821.44
2023-02-06T17:13:20.176Z,98827.03
2023-02-06T17:15:47.705Z,98832.47
2023-02-06T17:18:17.250Z,98818.97
2023-02-06T17:20:47.182Z,98826.75
2023-02-06T17:23:14.402Z,98831.78
2023-02-06T17:25:43.088Z,98834.59
2023-02-06T17:28:15.648Z,98835.66
2023-02-06T17:30:43.031Z,98837.91
2023-02-06T17:33:09.901Z,98839.94
2023-02-06T17:35:37.105Z,98847.59
2023-02-06T17:38:08.609Z,98844.91
2023-02-06T17:40:37.514Z,98847.13
2023-02-06T17:43:07.052Z,98843.97
2023-02-06T17:45:35.010Z,98843.97
2023-02-06T17:48:01.881Z,98841.31
2023-02-06T17:50:29.095Z,98846.75
2023-02-06T17:52:56.247Z,98834.69
2023-02-06T17:55:23.880Z,98844.03
2023-02-06T17:57:50.726Z,98838.63
2023-02-06T18:00:19.410Z,98828.28
2023-02-06T18:02:46.284Z,98825.34
2023-02-06T18:05:13.036Z,98822.91
2023-02-06T18:07:40.317Z,98825.88
2023-02-06T18:10:08.433Z,98818.72
2023-02-06T18:12:35.347Z,98815.53
2023-02-06T18:15:02.227Z,98804.22
2023-02-06T18:17:29.051Z,98806.69
2023-02-06T18:19:55.828Z,98808.41
2023-02-06T18:22:22.696Z,98795.88
2023-02-06T18:24:50.564Z,98799.56
2023-02-06T18:27:18.370Z,98799.56
2023-02-06T18:29:50.111Z,98799.06
2023-02-06T18:32:17.854Z,98791.19
2023-02-06T18:34:44.670Z,98784.56
2023-02-06T18:37:11.455Z,98784.78
2023-02-06T18:39:38.739Z,98777.91
2023-02-06T18:42:24.194Z,98771.25
2023-02-06T18:44:50.913Z,98764.38
2023-02-06T18:47:18.885Z,98759.69
2023-02-06T18:49:46.178Z,98762.91
2023-02-06T18:52:12.999Z,98769.28
2023-02-06T18:54:39.768Z,98767.81
2023-02-06T18:57:06.817Z,98776.66
2023-02-06T18:59:34.411Z,98764.88
2023-02-06T19:02:01.223Z,98760.44
2023-02-06T19:04:28.008Z,98755.00
2023-02-06T19:06:54.906Z,98742.00
2023-02-06T19:09:21.600Z,98737.53
2023-02-06T19:11:48.773Z,98735.34
2023-02-06T19:14:16.995Z,98727.72
2023-02-06T19:16:47.447Z,98722.53
2023-02-06T19:19:14.485Z,98728.97
2023-02-06T19:21:43.550Z,98728.47
2023-02-06T19:24:13.031Z,98729.69
2023-02-06T19:26:39.938Z,98729.44
2023-02-06T19:29:06.698Z,98724.00
2023-02-06T19:31:35.035Z,98725.00
2023-02-06T19:34:02.336Z,98720.34
2023-02-06T19:36:29.992Z,98713.44
2023-02-06T19:38:59.261Z,98713.94
2023-02-06T19:41:28.491Z,98714.91
2023-02-06T19:43:56.446Z,98706.31
2023-02-06T19:46:25.554Z,98694.25
2023-02-06T19:48:53.431Z,98703.34
2023-02-06T19:51:23.653Z,98695.94
2023-02-06T19:53:51.804Z,98696.22
2023-02-06T19:56:30.386Z,98687.09
2023-02-06T19:58:59.049Z,98685.13
2023-02-06T20:01:27.269Z,98683.66
2023-02-06T20:03:55.466Z,98685.38
2023-02-06T20:06:22.523Z,98682.91
2023-02-06T20:08:49.570Z,98683.16
2023-02-06T20:11:18.687Z,98683.41
2023-02-06T20:13:47.098Z,98687.81
2023-02-06T20:16:19.361Z,98692.97
2023-02-06T20:18:46.250Z,98678.94
2023-02-06T20:21:27.970Z,98689.53
2023-02-06T20:24:00.452Z,98680.41
2023-02-06T20:26:29.998Z,98684.34
2023-02-06T20:28:57.328Z,98679.44
2023-02-06T20:31:24.255Z,98683.09
2023-02-06T20:33:51.026Z,98680.91
2023-02-06T20:36:23.249Z,98676.44
2023-02-06T20:38:52.511Z,98677.69
2023-02-06T20:41:20.496Z,98678.19
2023-02-06T20:43:48.110Z,98681.84
2023-02-06T20:46:18.498Z,98676.69
2023-02-06T20:48:46.122Z,98677.88
2023-02-06T20:51:14.208Z,98681.81
2023-02-06T20:53:41.244Z,98697.78
2023-02-06T20:56:14.618Z,98687.22
2023-02-06T20:58:50.344Z,98690.41
2023-02-06T21:01:24.700Z,98689.66
2023-02-06T21:03:54.300Z,98689.88
2023-02-06T21:06:22.338Z,98690.38
2023-02-06T21:08:57.443Z,98677.38
2023-02-06T21:11:24.235Z,98680.81
2023-02-06T21:13:50.950Z,98680.81
2023-02-06T21:16:17.718Z,98674.66
2023-02-06T21:18:44.472Z,98677.84
2023-02-06T21:21:14.294Z,98668.28
2023-02-06T21:23:42.385Z,98664.84
2023-02-06T21:26:10.405Z,98664.09
2023-02-06T21:28:37.984Z,98663.88
2023-02-06T21:31:12.694Z,98658.47
2023-02-06T21:33:39.826Z,98661.16
2023-02-06T21:36:07.711Z,98653.81
2023-02-06T21:38:38.170Z,98652.06
2023-02-06T21:41:14.198Z,98655.78
2023-02-06T21:43:41.319Z,98646.44
2023-02-06T21:46:08.119Z,98643.00
2023-02-06T21:48:35.607Z,98648.66
2023-02-06T21:51:12.778Z,98644.72
2023-02-06T21:53:40.115Z,98644.25
2023-02-06T21:56:08.266Z,98629.53
2023-02-06T21:58:36.205Z,98627.78
2023-02-06T22:01:03.380Z,98634.66
2023-02-06T22:03:30.181Z,98631.97
2023-02-06T22:06:08.409Z,98628.06
2023-02-06T22:08:42.037Z,98617.25
2023-02-06T22:11:17.161Z,98605.94
2023-02-06T22:13:44.644Z,98605.47
2023-02-06T22:16:12.991Z,98597.63
2023-02-06T22:18:40.271Z,98605.97
2023-02-06T22:21:08.258Z,98600.78
2023-02-06T22:23:35.527Z,98596.88
2023-02-06T22:26:02.341Z,98612.59
2023-02-06T22:28:29.109Z,98613.34
2023-02-06T22:30:55.918Z,98601.81
2023-02-06T22:33:22.745Z,98604.50
2023-02-06T22:35:49.450Z,98605.97
2023-02-06T22:38:16.227Z,98591.72
2023-02-06T22:40:42.970Z,98604.97
2023-02-06T22:43:09.732Z,98594.16
2023-02-06T22:45:36.763Z,98584.34
2023-02-06T22:48:03.884Z,98588.53
2023-02-06T22:50:30.553Z,98595.91
2023-02-06T22:53:15.844Z,98582.38
2023-02-06T22:56:01.295Z,98589.25
2023-02-06T22:58:28.125Z,98597.38
2023-02-06T23:01:02.268Z,98589.03
2023-02-06T23:03:29.143Z,98587.06
2023-02-06T23:05:55.840Z,98582.16
2023-02-06T23:08:22.617Z,98574.03
2023-02-06T23:10:49.362Z,98579.69
2023-02-06T23:13:16.150Z,98565.44
2023-02-06T23:15:43.100Z,98568.88
2023-02-06T23:18:09.994Z,98560.78
2023-02-06T23:20:37.399Z,98565.44
2023-02-06T23:23:04.500Z,98562.75
2023-02-06T23:25:32.148Z,98569.84
2023-02-06T23:27:58.922Z,98576.47
2023-02-06T23:30:25.688Z,98572.31
2023-02-06T23:32:52.500Z,98566.91
2023-02-06T23:35:19.144Z,98568.13
2023-02-06T23:37:45.929Z,98568.38
2023-02-06T23:40:12.738Z,98566.66
2023-02-06T23:42:39.442Z,98573.31
2023-02-06T23:45:06.517Z,98573.31
2023-02-06T23:47:34.898Z,98569.38
2023-02-06T23:50:01.589Z,98565.44
2023-02-06T23:52:28.318Z,98560.53
2023-02-06T23:54:55.039Z,98562.50
2023-02-06T23:57:21.918Z,98562.72
2023-02-06T23:59:48.732Z,98556.09
